createdAt,value
2023-05-08T00:00:56.664Z,23.13
2023-05-08T00:03:24.031Z,25.53
2023-05-08T00:05:50.584Z,24.73
2023-05-08T00:08:17.023Z,24.30
2023-05-08T00:10:43.425Z,21.87
2023-05-08T00:13:09.915Z,22.60
2023-05-08T00:15:36.517Z,22.43
2023-05-08T00:18:03.032Z,22.43
2023-05-08T00:20:29.616Z,21.50
2023-05-08T00:22:57.820Z,21.73
2023-05-08T00:25:24.315Z,21.67
2023-05-08T00:27:50.800Z,20.17
2023-05-08T00:30:17.566Z,21.20
2023-05-08T00:32:44.139Z,22.20
2023-05-08T00:35:10.786Z,22.07
2023-05-08T00:37:40.672Z,22.77
2023-05-08T00:40:09.123Z,22.27
2023-05-08T00:42:35.655Z,22.37
2023-05-08T00:45:03.201Z,22.73
2023-05-08T00:47:31.653Z,22.10
2023-05-08T00:49:59.255Z,21.57
2023-05-08T00:52:29.660Z,21.97
2023-05-08T00:54:56.557Z,22.67
2023-05-08T00:57:24.392Z,20.77
2023-05-08T00:59:52.663Z,21.43
2023-05-08T01:02:20.945Z,20.97
2023-05-08T01:04:48.384Z,20.17
2023-05-08T01:07:14.844Z,20.97
2023-05-08T01:09:42.377Z,19.87
2023-05-08T01:12:47.538Z,20.60
2023-05-08T01:15:41.225Z,20.80
2023-05-08T01:18:13.323Z,19.50
2023-05-08T01:21:05.534Z,21.20
2023-05-08T01:24:09.628Z,18.93
2023-05-08T01:26:59.302Z,19.67
2023-05-08T01:30:03.465Z,20.43
2023-05-08T01:32:39.086Z,18.70
2023-05-08T01:35:27.276Z,19.83
2023-05-08T01:38:18.611Z,19.87
2023-05-08T01:40:53.626Z,18.73
2023-05-08T01:43:38.715Z,19.70
2023-05-08T01:46:12.496Z,18.70
2023-05-08T01:48:56.338Z,18.93
2023-05-08T01:51:25.464Z,19.03
2023-05-08T01:53:57.943Z,20.50
2023-05-08T01:56:27.128Z,20.87
2023-05-08T01:58:55.800Z,20.40
2023-05-08T02:01:25.780Z,20.77
2023-05-08T02:03:54.500Z,20.00
2023-05-08T02:06:22.701Z,21.23
2023-05-08T02:08:51.485Z,19.93
2023-05-08T02:11:18.725Z,21.23
2023-05-08T02:13:48.083Z,19.73
2023-05-08T02:16:15.698Z,20.97
2023-05-08T02:18:51.165Z,20.57
2023-05-08T02:21:18.773Z,20.13
2023-05-08T02:23:47.014Z,20.37
2023-05-08T02:26:15.920Z,20.73
2023-05-08T02:28:42.925Z,20.27
2023-05-08T02:31:12.113Z,18.83
2023-05-08T02:33:41.627Z,21.67
2023-05-08T02:36:08.997Z,21.73
2023-05-08T02:38:38.091Z,20.40
2023-05-08T02:41:06.590Z,20.67
2023-05-08T02:43:33.257Z,20.03
2023-05-08T02:46:20.036Z,19.43
2023-05-08T02:48:59.616Z,20.07
2023-05-08T02:51:48.267Z,20.47
2023-05-08T02:54:21.825Z,21.27
2023-05-08T02:56:58.181Z,20.57
2023-05-08T02:59:30.071Z,19.80
2023-05-08T03:02:09.400Z,19.70
2023-05-08T03:04:40.329Z,19.93
2023-05-08T03:07:07.046Z,19.10
2023-05-08T03:09:47.295Z,21.37
2023-05-08T03:12:17.048Z,20.27
2023-05-08T03:14:52.904Z,20.47
2023-05-08T03:17:22.840Z,19.33
2023-05-08T03:19:55.100Z,18.53
2023-05-08T03:22:22.810Z,21.07
2023-05-08T03:24:51.300Z,20.67
2023-05-08T03:27:18.194Z,20.53
2023-05-08T03:29:46.015Z,19.17
2023-05-08T03:32:14.077Z,20.67
2023-05-08T03:34:41.051Z,20.40
2023-05-08T03:37:07.686Z,20.80
2023-05-08T03:39:34.185Z,21.40
2023-05-08T03:42:00.827Z,21.50
2023-05-08T03:44:28.573Z,21.43
2023-05-08T03:46:58.538Z,23.70
2023-05-08T03:49:26.496Z,22.30
2023-05-08T03:51:56.828Z,23.07
2023-05-08T03:54:25.569Z,21.97
2023-05-08T03:56:53.820Z,20.87
2023-05-08T03:59:28.895Z,22.13
2023-05-08T04:02:01.520Z,22.27
2023-05-08T04:04:33.677Z,21.37
2023-05-08T04:07:10.494Z,21.40
2023-05-08T04:09:51.614Z,24.90
2023-05-08T04:12:21.931Z,21.93
2023-05-08T04:14:56.714Z,23.73
2023-05-08T04:17:34.854Z,23.17
2023-05-08T04:20:04.679Z,24.10
2023-05-08T04:22:33.674Z,22.27
2023-05-08T04:25:03.932Z,22.47
2023-05-08T04:27:31.299Z,20.53
2023-05-08T04:29:58.366Z,21.30
2023-05-08T04:32:26.154Z,20.43
2023-05-08T04:34:53.107Z,20.77
2023-05-08T04:37:26.866Z,19.73
2023-05-08T04:39:53.662Z,22.30
2023-05-08T04:42:20.854Z,22.67
2023-05-08T04:44:47.730Z,22.90
2023-05-08T04:47:14.677Z,23.57
2023-05-08T04:49:41.177Z,22.87
2023-05-08T04:52:07.890Z,22.23
2023-05-08T04:54:34.656Z,24.60
2023-05-08T04:57:01.333Z,22.67
2023-05-08T04:59:29.416Z,21.70
2023-05-08T05:01:56.864Z,22.23
2023-05-08T05:04:23.391Z,19.53
2023-05-08T05:06:49.933Z,20.10
2023-05-08T05:09:16.384Z,19.30
2023-05-08T05:11:42.913Z,19.70
2023-05-08T05:14:09.416Z,19.63
2023-05-08T05:16:36.039Z,19.73
2023-05-08T05:19:02.565Z,18.57
2023-05-08T05:21:28.969Z,19.57
2023-05-08T05:23:55.370Z,17.67
2023-05-08T05:26:22.095Z,17.80
2023-05-08T05:28:48.910Z,18.93
2023-05-08T05:31:15.451Z,18.53
2023-05-08T05:33:42.493Z,17.77
2023-05-08T05:36:10.006Z,18.57
2023-05-08T05:38:36.672Z,18.27
2023-05-08T05:41:03.441Z,18.93
2023-05-08T05:43:30.048Z,20.27
2023-05-08T05:45:56.492Z,22.33
2023-05-08T05:48:23.048Z,20.90
2023-05-08T05:50:49.443Z,21.73
2023-05-08T05:53:15.965Z,21.57
2023-05-08T05:55:42.410Z,22.93
2023-05-08T05:58:09.019Z,22.10
2023-05-08T06:00:35.552Z,19.97
2023-05-08T06:03:02.863Z,19.17
2023-05-08T06:05:29.911Z,17.77
2023-05-08T06:07:57.216Z,18.50
2023-05-08T06:10:24.141Z,17.80
2023-05-08T06:12:50.652Z,16.43
2023-05-08T06:15:17.386Z,16.90
2023-05-08T06:17:43.912Z,17.30
2023-05-08T06:20:10.600Z,17.00
2023-05-08T06:22:40.275Z,15.43
2023-05-08T06:25:07.390Z,14.97
2023-05-08T06:27:37.006Z,14.87
2023-05-08T06:30:04.730Z,16.07
2023-05-08T06:32:31.343Z,14.50
2023-05-08T06:34:57.834Z,15.90
2023-05-08T06:37:24.361Z,14.67
2023-05-08T06:40:00.270Z,15.43
2023-05-08T06:42:37.006Z,15.00
2023-05-08T06:45:04.362Z,15.07
2023-05-08T06:47:30.876Z,15.10
2023-05-08T06:49:57.342Z,15.87
2023-05-08T06:52:25.787Z,13.73
2023-05-08T06:54:52.419Z,16.37
2023-05-08T06:57:18.954Z,15.23
2023-05-08T06:59:45.387Z,16.27
2023-05-08T07:02:12.453Z,15.73
2023-05-08T07:04:39.162Z,15.00
2023-05-08T07:07:06.855Z,15.23
2023-05-08T07:09:33.468Z,15.13
2023-05-08T07:11:59.883Z,15.27
2023-05-08T07:14:27.553Z,14.73
2023-05-08T07:16:54.421Z,15.53
2023-05-08T07:19:22.556Z,11.53
2023-05-08T07:21:49.329Z,14.80
2023-05-08T07:24:15.852Z,15.50
2023-05-08T07:26:42.582Z,15.83
2023-05-08T07:29:09.029Z,15.33
2023-05-08T07:31:36.460Z,13.77
2023-05-08T07:34:03.120Z,16.37
2023-05-08T07:36:30.690Z,17.33
2023-05-08T07:38:57.292Z,15.13
2023-05-08T07:41:23.921Z,15.00
2023-05-08T07:43:50.455Z,18.27
2023-05-08T07:46:18.301Z,14.90
2023-05-08T07:48:44.873Z,16.93
2023-05-08T07:51:11.396Z,17.23
2023-05-08T07:53:37.800Z,14.67
2023-05-08T07:56:05.217Z,15.90
2023-05-08T07:58:31.748Z,14.57
2023-05-08T08:00:58.215Z,15.30
2023-05-08T08:03:24.757Z,14.33
2023-05-08T08:05:51.443Z,15.57
2023-05-08T08:08:17.985Z,16.00
2023-05-08T08:10:44.408Z,15.93
2023-05-08T08:13:10.826Z,15.30
2023-05-08T08:15:37.322Z,13.93
2023-05-08T08:18:03.900Z,16.30
2023-05-08T08:20:30.399Z,13.53
2023-05-08T08:22:56.795Z,14.87
2023-05-08T08:25:24.624Z,12.53
2023-05-08T08:27:51.428Z,14.43
2023-05-08T08:30:18.775Z,13.07
2023-05-08T08:32:46.192Z,14.20
2023-05-08T08:35:13.644Z,13.30
2023-05-08T08:37:40.374Z,13.87
2023-05-08T08:40:07.673Z,13.60
2023-05-08T08:42:34.203Z,14.83
2023-05-08T08:45:01.204Z,14.40
2023-05-08T08:47:29.750Z,13.40
2023-05-08T08:49:58.919Z,12.10
2023-05-08T08:52:47.288Z,12.47
2023-05-08T08:55:17.084Z,13.03
2023-05-08T08:57:52.890Z,13.60
2023-05-08T09:00:21.116Z,13.57
2023-05-08T09:02:47.791Z,13.50
2023-05-08T09:05:15.893Z,12.47
2023-05-08T09:07:43.847Z,13.07
2023-05-08T09:10:15.835Z,13.27
2023-05-08T09:12:42.609Z,11.43
2023-05-08T09:15:09.291Z,14.00
2023-05-08T09:17:35.832Z,12.53
2023-05-08T09:20:02.740Z,13.17
2023-05-08T09:22:30.351Z,11.87
2023-05-08T09:25:01.004Z,13.50
2023-05-08T09:27:28.807Z,14.20
2023-05-08T09:30:04.550Z,13.77
2023-05-08T09:32:32.367Z,13.40
2023-05-08T09:34:59.591Z,14.00
2023-05-08T09:37:26.919Z,12.53
2023-05-08T09:39:54.478Z,12.40
2023-05-08T09:42:21.359Z,12.90
2023-05-08T09:44:53.205Z,12.40
2023-05-08T09:47:22.225Z,12.10
2023-05-08T09:50:08.820Z,11.67
2023-05-08T09:52:37.317Z,11.40
2023-05-08T09:55:09.370Z,12.43
2023-05-08T09:57:39.211Z,11.37
2023-05-08T10:00:11.391Z,11.20
2023-05-08T10:02:53.654Z,10.03
2023-05-08T10:05:26.367Z,10.33
2023-05-08T10:07:53.521Z,11.20
2023-05-08T10:10:27.099Z,12.33
2023-05-08T10:12:55.662Z,11.30
2023-05-08T10:15:24.463Z,11.00
2023-05-08T10:17:58.780Z,10.10
2023-05-08T10:20:29.460Z,12.43
2023-05-08T10:22:57.222Z,10.93
2023-05-08T10:25:25.707Z,11.60
2023-05-08T10:28:16.306Z,11.00
2023-05-08T10:30:47.435Z,10.57
2023-05-08T10:33:25.732Z,10.97
2023-05-08T10:35:52.701Z,10.27
2023-05-08T10:38:19.647Z,10.73
2023-05-08T10:40:48.044Z,10.07
2023-05-08T10:43:14.721Z,11.00
2023-05-08T10:45:41.567Z,10.87
2023-05-08T10:48:27.282Z,10.30
2023-05-08T10:51:14.576Z,9.67
2023-05-08T10:53:55.327Z,10.60
2023-05-08T10:56:29.104Z,10.77
2023-05-08T10:58:57.568Z,12.30
2023-05-08T11:01:24.994Z,9.80
2023-05-08T11:03:52.556Z,9.37
2023-05-08T11:06:43.600Z,11.67
2023-05-08T11:09:15.094Z,9.90
2023-05-08T11:11:49.003Z,11.43
2023-05-08T11:14:17.063Z,9.23
2023-05-08T11:17:04.110Z,10.00
2023-05-08T11:19:30.741Z,10.63
2023-05-08T11:22:21.802Z,10.50
2023-05-08T11:24:57.100Z,11.37
2023-05-08T11:27:53.740Z,10.97
2023-05-08T11:30:36.823Z,11.40
2023-05-08T11:33:04.667Z,11.50
2023-05-08T11:35:42.655Z,11.40
2023-05-08T11:38:17.180Z,10.97
2023-05-08T11:40:54.240Z,11.47
2023-05-08T11:43:31.394Z,10.60
2023-05-08T11:46:01.457Z,11.03
2023-05-08T11:48:27.895Z,10.63
2023-05-08T11:50:54.421Z,10.63
2023-05-08T11:53:22.651Z,9.57
2023-05-08T11:55:52.766Z,10.27
2023-05-08T11:58:19.334Z,10.70
2023-05-08T12:00:47.106Z,10.30
2023-05-08T12:03:17.472Z,10.87
2023-05-08T12:05:44.771Z,9.60
2023-05-08T12:08:13.408Z,10.53
2023-05-08T12:11:00.174Z,10.97
2023-05-08T12:13:28.816Z,11.17
2023-05-08T12:15:58.473Z,10.33
2023-05-08T12:18:26.857Z,10.37
2023-05-08T12:20:54.197Z,10.13
2023-05-08T12:23:20.959Z,12.57
2023-05-08T12:25:47.600Z,10.47
2023-05-08T12:28:14.115Z,10.90
2023-05-08T12:30:41.245Z,9.27
2023-05-08T12:33:08.864Z,11.10
2023-05-08T12:35:37.343Z,11.73
2023-05-08T12:38:05.746Z,11.57
2023-05-08T12:40:42.708Z,10.40
2023-05-08T12:43:10.511Z,10.37
2023-05-08T12:45:39.516Z,11.07
2023-05-08T12:48:11.423Z,10.43
2023-05-08T12:50:40.534Z,12.00
2023-05-08T12:53:09.335Z,12.80
2023-05-08T12:55:37.468Z,10.23
2023-05-08T12:58:06.928Z,9.13
2023-05-08T13:00:42.672Z,10.17
2023-05-08T13:03:11.284Z,9.70
2023-05-08T13:05:42.202Z,10.23
2023-05-08T13:08:10.946Z,12.83
2023-05-08T13:10:54.480Z,13.07
2023-05-08T13:13:23.278Z,12.23
2023-05-08T13:15:51.155Z,11.30
2023-05-08T13:18:18.378Z,11.00
2023-05-08T13:20:45.007Z,14.73
2023-05-08T13:23:12.355Z,14.10
2023-05-08T13:25:40.458Z,11.33
2023-05-08T13:28:08.725Z,12.03
2023-05-08T13:30:37.112Z,10.73
2023-05-08T13:33:04.285Z,13.87
2023-05-08T13:35:31.054Z,12.00
2023-05-08T13:37:58.506Z,12.57
2023-05-08T13:40:25.540Z,15.83
2023-05-08T13:42:52.321Z,12.57
2023-05-08T13:45:18.914Z,13.17
2023-05-08T13:47:46.575Z,12.83
2023-05-08T13:50:14.793Z,13.53
2023-05-08T13:52:41.897Z,12.13
2023-05-08T13:55:10.351Z,13.87
2023-05-08T13:57:36.949Z,13.30
2023-05-08T14:00:04.920Z,13.03
2023-05-08T14:02:32.589Z,12.97
2023-05-08T14:04:59.052Z,13.27
2023-05-08T14:07:26.240Z,12.10
2023-05-08T14:09:53.325Z,12.13
2023-05-08T14:12:20.131Z,12.47
2023-05-08T14:14:46.643Z,12.93
2023-05-08T14:17:13.088Z,14.23
2023-05-08T14:19:39.533Z,12.90
2023-05-08T14:22:06.998Z,12.23
2023-05-08T14:24:33.424Z,12.33
2023-05-08T14:27:00.436Z,10.77
2023-05-08T14:29:26.910Z,12.43
2023-05-08T14:31:53.490Z,11.37
2023-05-08T14:34:20.004Z,12.10
2023-05-08T14:36:46.405Z,12.30
2023-05-08T14:39:12.942Z,12.73
2023-05-08T14:41:39.671Z,11.90
2023-05-08T14:44:07.369Z,12.50
2023-05-08T14:46:33.980Z,11.63
2023-05-08T14:49:00.464Z,11.73
2023-05-08T14:51:27.078Z,12.13
2023-05-08T14:53:53.723Z,12.13
2023-05-08T14:56:24.404Z,10.47
2023-05-08T14:58:51.335Z,12.13
2023-05-08T15:01:18.453Z,11.70
2023-05-08T15:03:47.358Z,12.03
2023-05-08T15:06:14.031Z,13.07
2023-05-08T15:08:40.509Z,12.90
2023-05-08T15:11:06.918Z,12.80
2023-05-08T15:13:33.589Z,11.27
2023-05-08T15:16:00.091Z,12.53
2023-05-08T15:18:28.505Z,11.53
2023-05-08T15:20:54.960Z,11.60
2023-05-08T15:23:21.427Z,10.67
2023-05-08T15:25:49.608Z,10.97
2023-05-08T15:28:16.030Z,10.63
2023-05-08T15:30:45.850Z,10.57
2023-05-08T15:33:12.720Z,9.37
2023-05-08T15:35:39.243Z,10.87
2023-05-08T15:38:07.229Z,11.10
2023-05-08T15:40:34.813Z,9.30
2023-05-08T15:43:01.411Z,10.63
2023-05-08T15:45:28.045Z,10.33
2023-05-08T15:47:54.497Z,10.63
2023-05-08T15:50:23.559Z,9.57
2023-05-08T15:52:50.047Z,10.27
2023-05-08T15:55:17.648Z,11.03
2023-05-08T15:57:44.092Z,9.10
2023-05-08T16:00:11.164Z,9.47
2023-05-08T16:02:37.665Z,11.67
2023-05-08T16:05:12.856Z,11.80
2023-05-08T16:07:39.700Z,9.93
2023-05-08T16:10:07.397Z,11.53
2023-05-08T16:12:34.057Z,9.80
2023-05-08T16:15:00.515Z,8.87
2023-05-08T16:17:27.119Z,10.20
2023-05-08T16:19:53.652Z,12.50
2023-05-08T16:22:20.196Z,8.80
2023-05-08T16:24:46.872Z,9.83
2023-05-08T16:27:13.363Z,9.57
2023-05-08T16:29:39.797Z,9.47
2023-05-08T16:32:06.446Z,12.27
2023-05-08T16:34:35.266Z,9.67
2023-05-08T16:37:01.699Z,8.80
2023-05-08T16:39:28.235Z,9.47
2023-05-08T16:41:54.687Z,10.57
2023-05-08T16:44:21.180Z,9.57
2023-05-08T16:46:48.308Z,8.17
2023-05-08T16:49:14.745Z,11.13
2023-05-08T16:51:41.150Z,11.30
2023-05-08T16:54:07.566Z,10.07
2023-05-08T16:56:34.012Z,12.03
2023-05-08T16:59:05.946Z,11.33
2023-05-08T17:01:35.295Z,9.73
2023-05-08T17:04:01.885Z,9.93
2023-05-08T17:06:28.510Z,10.63
2023-05-08T17:08:55.045Z,9.03
2023-05-08T17:11:21.889Z,8.87
2023-05-08T17:13:48.385Z,12.13
2023-05-08T17:16:15.034Z,11.60
2023-05-08T17:18:41.471Z,12.83
2023-05-08T17:21:07.902Z,11.07
2023-05-08T17:23:34.394Z,8.80
2023-05-08T17:26:02.208Z,10.93
2023-05-08T17:28:29.028Z,12.33
2023-05-08T17:30:55.921Z,10.67
2023-05-08T17:33:22.673Z,11.07
2023-05-08T17:35:49.151Z,9.67
2023-05-08T17:38:15.689Z,10.63
2023-05-08T17:40:42.433Z,8.93
2023-05-08T17:43:08.925Z,10.70
2023-05-08T17:45:35.513Z,10.00
2023-05-08T17:48:02.200Z,9.80
2023-05-08T17:50:28.779Z,10.17
2023-05-08T17:52:55.322Z,9.77
2023-05-08T17:55:22.015Z,8.90
2023-05-08T17:57:48.461Z,7.53
2023-05-08T18:00:15.491Z,9.83
2023-05-08T18:02:42.140Z,10.20
2023-05-08T18:05:09.024Z,9.83
2023-05-08T18:07:35.470Z,10.60
2023-05-08T18:10:02.141Z,9.03
2023-05-08T18:12:28.787Z,9.63
2023-05-08T18:14:55.238Z,8.60
2023-05-08T18:17:22.712Z,8.37
2023-05-08T18:19:49.284Z,7.90
2023-05-08T18:22:15.853Z,8.20
2023-05-08T18:24:42.468Z,8.63
2023-05-08T18:27:09.148Z,7.47
2023-05-08T18:29:35.674Z,8.00
2023-05-08T18:32:02.134Z,8.03
2023-05-08T18:34:28.531Z,8.20
2023-05-08T18:36:56.145Z,8.00
2023-05-08T18:39:24.535Z,7.40
2023-05-08T18:41:50.951Z,7.07
2023-05-08T18:44:17.794Z,6.87
2023-05-08T18:46:44.293Z,6.33
2023-05-08T18:49:10.991Z,5.77
2023-05-08T18:51:37.464Z,4.20
2023-05-08T18:54:04.116Z,3.77
2023-05-08T18:56:30.766Z,5.67
2023-05-08T18:58:57.237Z,4.33
2023-05-08T19:01:23.928Z,4.67
2023-05-08T19:03:50.660Z,4.40
2023-05-08T19:06:17.204Z,4.43
2023-05-08T19:08:44.533Z,4.60
2023-05-08T19:11:11.009Z,5.07
2023-05-08T19:13:37.878Z,5.10
2023-05-08T19:16:04.605Z,4.30
2023-05-08T19:18:31.146Z,4.50
2023-05-08T19:20:57.895Z,4.87
2023-05-08T19:23:28.188Z,4.23
2023-05-08T19:25:54.782Z,4.50
2023-05-08T19:28:21.244Z,3.90
2023-05-08T19:30:47.678Z,4.20
2023-05-08T19:33:14.236Z,4.07
2023-05-08T19:35:40.661Z,4.50
2023-05-08T19:38:07.278Z,4.03
2023-05-08T19:40:41.321Z,3.60
2023-05-08T19:43:18.738Z,3.00
2023-05-08T19:45:45.294Z,2.20
2023-05-08T19:48:17.951Z,2.40
2023-05-08T19:50:44.971Z,1.80
2023-05-08T19:53:11.466Z,2.03
2023-05-08T19:55:38.016Z,2.30
2023-05-08T19:58:04.423Z,1.73
2023-05-08T20:00:30.841Z,1.77
2023-05-08T20:02:57.403Z,2.33
2023-05-08T20:05:23.971Z,1.60
2023-05-08T20:07:50.385Z,1.37
2023-05-08T20:10:16.944Z,2.33
2023-05-08T20:12:43.497Z,1.53
2023-05-08T20:15:10.500Z,1.50
2023-05-08T20:17:36.935Z,1.60
2023-05-08T20:20:03.693Z,1.93
2023-05-08T20:22:30.218Z,1.60
2023-05-08T20:24:56.850Z,1.87
2023-05-08T20:27:23.311Z,2.00
2023-05-08T20:29:49.905Z,2.10
2023-05-08T20:32:19.019Z,3.03
2023-05-08T20:34:45.514Z,3.47
2023-05-08T20:37:12.128Z,3.40
2023-05-08T20:39:38.715Z,3.73
2023-05-08T20:42:05.150Z,3.17
2023-05-08T20:44:32.652Z,3.13
2023-05-08T20:46:59.323Z,3.20
2023-05-08T20:49:26.074Z,2.53
2023-05-08T20:51:52.573Z,2.33
2023-05-08T20:54:19.125Z,2.00
2023-05-08T20:56:45.657Z,2.10
2023-05-08T20:59:12.118Z,1.93
2023-05-08T21:01:38.684Z,1.40
2023-05-08T21:04:05.262Z,1.87
2023-05-08T21:06:32.197Z,1.60
2023-05-08T21:08:58.630Z,1.70
2023-05-08T21:11:25.095Z,2.23
2023-05-08T21:13:51.624Z,1.90
2023-05-08T21:16:18.093Z,2.20
2023-05-08T21:18:44.558Z,2.47
2023-05-08T21:21:15.751Z,2.40
2023-05-08T21:23:42.169Z,2.47
2023-05-08T21:26:08.785Z,2.07
2023-05-08T21:28:35.270Z,2.43
2023-05-08T21:31:01.821Z,2.17
2023-05-08T21:33:28.342Z,2.20
2023-05-08T21:35:54.856Z,2.60
2023-05-08T21:38:21.294Z,2.23
2023-05-08T21:40:47.718Z,2.30
2023-05-08T21:43:14.165Z,2.70
2023-05-08T21:45:40.578Z,2.73
2023-05-08T21:48:07.026Z,2.37
2023-05-08T21:50:33.572Z,2.77
2023-05-08T21:53:00.165Z,2.93
2023-05-08T21:55:26.745Z,2.37
2023-05-08T21:57:53.883Z,3.20
2023-05-08T22:00:20.960Z,4.33
2023-05-08T22:02:47.944Z,4.17
2023-05-08T22:05:14.787Z,3.83
2023-05-08T22:07:41.590Z,4.10
2023-05-08T22:10:09.420Z,4.73
2023-05-08T22:12:36.098Z,5.33
2023-05-08T22:15:02.703Z,4.87
2023-05-08T22:17:29.196Z,5.93
2023-05-08T22:19:55.601Z,5.67
2023-05-08T22:22:22.130Z,5.90
2023-05-08T22:24:48.563Z,7.03
2023-05-08T22:27:15.014Z,9.13
2023-05-08T22:29:41.440Z,8.73
2023-05-08T22:32:08.494Z,6.53
2023-05-08T22:34:35.180Z,8.93
2023-05-08T22:37:02.179Z,10.63
2023-05-08T22:39:28.698Z,9.20
2023-05-08T22:41:55.368Z,9.80
2023-05-08T22:44:22.202Z,11.37
2023-05-08T22:46:48.886Z,10.73
2023-05-08T22:49:15.521Z,10.17
2023-05-08T22:51:42.028Z,11.83
2023-05-08T22:54:08.500Z,11.67
2023-05-08T22:56:36.058Z,12.03
2023-05-08T22:59:02.539Z,9.07
2023-05-08T23:01:28.970Z,11.80
2023-05-08T23:03:56.582Z,12.83
2023-05-08T23:06:23.331Z,11.23
2023-05-08T23:08:49.790Z,11.83
2023-05-08T23:11:16.505Z,12.63
2023-05-08T23:13:42.952Z,12.97
2023-05-08T23:16:09.553Z,13.10
2023-05-08T23:18:36.019Z,12.23
2023-05-08T23:21:06.635Z,14.50
2023-05-08T23:23:33.373Z,12.17
2023-05-08T23:26:01.096Z,13.70
2023-05-08T23:28:27.646Z,14.37
2023-05-08T23:30:54.137Z,13.53
2023-05-08T23:33:20.840Z,14.93
2023-05-08T23:35:47.264Z,15.37
2023-05-08T23:38:13.762Z,13.50
2023-05-08T23:40:40.332Z,14.13
2023-05-08T23:43:06.964Z,15.07
2023-05-08T23:45:33.434Z,14.50
2023-05-08T23:47:59.953Z,15.47
2023-05-08T23:50:26.589Z,15.63
2023-05-08T23:52:53.098Z,14.57
2023-05-08T23:55:20.255Z,15.53
2023-05-08T23:57:46.904Z,15.10
